Time;durP1;ratioP1;P1;durP2;ratioP2;P2;SDS_P1;SDS_P2;PMS_P1;PMS_P2;Temp;Humidity;BMP_temperature;BMP_pressure;BME280_temperature;BME280_humidity;BME280_pressure;Samples;Min_cycle;Max_cycle;Signal;HPM_P1;HPM_P2
2022/01/22 00:02:23;;;;;;;0.30;0.30;;;;;;;-0.90;47.71;95492.69;5091768;28;21023;-54
2022/01/22 00:04:52;;;;;;;0.20;0.20;;;;;;;-1.18;47.27;95497.16;5091959;28;20435;-54
2022/01/22 00:07:20;;;;;;;0.20;0.20;;;;;;;-1.45;47.81;95426.03;5092085;28;20478;-54
2022/01/22 00:09:53;;;;;;;0.83;0.83;;;;;;;-1.31;48.86;95519.50;5091983;28;20467;-54
2022/01/22 00:15:21;;;;;;;0.20;0.20;;;;;;;-2.00;52.30;95528.19;5067387;28;20440;-54
2022/01/22 00:17:51;;;;;;;0.20;0.20;;;;;;;-1.67;52.27;95529.22;5091770;28;20528;-54
2022/01/22 00:20:22;;;;;;;0.20;0.20;;;;;;;-2.15;53.30;95530.03;5092234;28;20475;-54
2022/01/22 00:22:50;;;;;;;0.20;0.20;;;;;;;-3.29;55.87;95410.72;5092092;28;20441;-54
2022/01/22 00:25:21;;;;;;;0.30;0.20;;;;;;;-2.62;56.81;95523.56;5091815;28;20954;-54
2022/01/22 00:27:51;;;;;;;0.20;0.20;;;;;;;-2.57;57.03;95542.00;5091717;28;20494;-54
2022/01/22 00:30:23;;;;;;;0.20;0.20;;;;;;;-2.59;57.21;95518.03;5091862;28;20428;-54
2022/01/22 00:32:53;;;;;;;0.20;0.20;;;;;;;-4.15;59.39;95335.50;5091784;28;20964;-54
2022/01/22 00:35:24;;;;;;;0.20;0.20;;;;;;;-3.92;59.84;95373.25;5091791;28;20425;-54
2022/01/22 00:37:54;;;;;;;0.20;0.20;;;;;;;-3.03;59.82;95530.25;5091915;28;20906;-54
2022/01/22 00:40:23;;;;;;;0.20;0.20;;;;;;;-3.02;59.43;95500.75;5091682;28;20464;-54
2022/01/22 00:42:51;;;;;;;0.33;0.33;;;;;;;-4.35;59.75;95303.38;5091694;28;20425;-54
2022/01/22 00:45:21;;;;;;;0.20;0.20;;;;;;;-2.35;59.20;95527.22;5091761;28;20967;-54
2022/01/22 00:47:50;;;;;;;1.07;0.93;;;;;;;-2.31;57.67;95530.28;5091584;28;20437;-54
2022/01/22 00:50:25;;;;;;;0.20;0.20;;;;;;;-2.57;57.28;95536.78;5091878;28;20483;-54
2022/01/22 00:52:53;;;;;;;0.20;0.20;;;;;;;-2.45;56.99;95531.91;5091515;28;20435;-53
2022/01/22 00:55:22;;;;;;;0.20;0.20;;;;;;;-2.14;55.62;95531.63;5091451;28;20432;-54
2022/01/22 00:57:50;;;;;;;0.20;0.20;;;;;;;-1.94;54.25;95520.44;5091769;28;20537;-54
2022/01/22 01:00:19;;;;;;;0.20;0.20;;;;;;;-3.40;54.29;95413.75;5091737;28;20436;-54
2022/01/22 01:02:49;;;;;;;0.20;0.20;;;;;;;-2.46;55.28;95513.94;5091240;28;20912;-54
2022/01/22 01:05:18;;;;;;;1.37;1.37;;;;;;;-2.31;54.15;95473.97;5091737;28;20452;-53
2022/01/22 01:07:47;;;;;;;0.20;0.20;;;;;;;-2.13;53.74;95507.28;5094695;28;20432;-54
2022/01/22 01:10:19;;;;;;;0.30;0.30;;;;;;;-2.36;54.77;95504.88;5095168;28;20468;-54
2022/01/22 01:12:49;;;;;;;0.20;0.20;;;;;;;-3.47;54.13;95374.03;5095344;28;20511;-54
2022/01/22 01:15:36;;;;;;;0.40;0.40;;;;;;;-3.00;53.25;95459.88;5095112;28;20460;-54
2022/01/22 01:32:17;;;;;;;0.20;0.20;;;;;;;-2.94;51.02;95331.31;5094509;28;20428;-54
2022/01/22 01:34:50;;;;;;;0.20;0.20;;;;;;;-2.77;53.96;95489.09;5094606;28;20489;-54
2022/01/22 01:37:23;;;;;;;0.20;0.20;;;;;;;-3.14;54.68;95459.94;5094680;28;20464;-54
2022/01/22 01:39:59;;;;;;;0.20;0.20;;;;;;;-2.70;54.96;95492.53;5094727;28;20474;-54
2022/01/22 01:42:34;;;;;;;0.20;0.10;;;;;;;-2.79;53.35;95444.38;5094736;28;20470;-54
2022/01/22 01:45:05;;;;;;;0.20;0.20;;;;;;;-2.35;54.39;95484.94;5094647;28;20432;-54
2022/01/22 01:47:36;;;;;;;0.20;0.17;;;;;;;-2.94;53.83;95549.13;5094522;28;20486;-53
2022/01/22 01:50:07;;;;;;;0.20;0.20;;;;;;;-2.85;54.40;95488.38;5094486;28;21053;-54
2022/01/22 01:52:42;;;;;;;0.20;0.17;;;;;;;-3.23;55.62;95514.44;5094471;28;20925;-53
2022/01/22 01:55:15;;;;;;;0.87;0.87;;;;;;;-3.47;56.28;95443.97;5094453;28;20493;-53
2022/01/22 01:57:43;;;;;;;0.20;0.20;;;;;;;-2.64;54.71;95489.22;5094311;28;21089;-53
2022/01/22 02:00:16;;;;;;;0.20;0.17;;;;;;;-2.42;54.96;95495.22;5094531;28;20501;-53
2022/01/22 02:02:47;;;;;;;0.20;0.20;;;;;;;-3.27;55.69;95413.91;5093994;28;20521;-54
2022/01/22 02:05:20;;;;;;;0.20;0.20;;;;;;;-3.25;56.25;95417.13;5094273;28;20512;-53
2022/01/22 02:07:53;;;;;;;0.20;0.20;;;;;;;-3.53;57.24;95445.47;5094164;28;20475;-54
2022/01/22 02:10:27;;;;;;;0.50;0.50;;;;;;;-2.78;57.78;95487.47;5094155;28;20811;-54
2022/01/22 02:24:01;;;;;;;0.20;0.20;;;;;;;-3.69;55.18;95400.84;5093817;28;20796;-54
2022/01/22 02:26:31;;;;;;;0.20;0.20;;;;;;;-2.94;54.77;95505.84;5093586;28;20457;-54
2022/01/22 02:28:59;;;;;;;0.20;0.20;;;;;;;-3.06;54.80;95429.50;5093660;28;20851;-54
2022/01/22 02:31:34;;;;;;;0.20;0.20;;;;;;;-2.17;53.63;95495.66;5093755;28;20956;-54
2022/01/22 02:34:12;;;;;;;0.20;0.20;;;;;;;-2.64;54.68;95484.03;5093732;28;20436;-54
2022/01/22 02:36:54;;;;;;;0.30;0.20;;;;;;;-2.33;52.89;95501.13;5093482;28;20421;-54
2022/01/22 02:39:34;;;;;;;1.17;1.17;;;;;;;-2.76;54.47;95490.66;5093823;28;20447;-54
2022/01/22 02:42:03;;;;;;;0.20;0.20;;;;;;;-3.91;54.55;95283.44;5093828;28;20855;-53
2022/01/22 02:44:34;;;;;;;0.20;0.20;;;;;;;-3.50;55.05;95351.88;5093518;28;20428;-53
2022/01/22 02:47:06;;;;;;;0.20;0.10;;;;;;;-2.96;54.88;95461.13;5093791;28;20428;-54
2022/01/22 02:49:35;;;;;;;0.20;0.20;;;;;;;-3.40;55.31;95398.22;5093374;28;20479;-53
2022/01/22 02:52:07;;;;;;;0.20;0.20;;;;;;;-2.99;54.67;95487.44;5093730;28;20515;-53
2022/01/22 02:54:36;;;;;;;0.20;0.17;;;;;;;-5.11;56.75;95233.84;5093571;28;20481;-53
2022/01/22 02:57:05;;;;;;;0.20;0.20;;;;;;;-3.19;55.54;95477.81;5093106;28;20497;-53
2022/01/22 02:59:33;;;;;;;0.20;0.20;;;;;;;-3.17;56.41;95479.22;5092905;28;20485;-53
2022/01/22 03:02:03;;;;;;;0.20;0.20;;;;;;;-3.45;56.18;95436.81;5092682;28;21018;-54
2022/01/22 03:04:33;;;;;;;0.20;0.20;;;;;;;-8.95;54.29;94698.50;5093683;28;20465;-53
2022/01/22 03:07:08;;;;;;;0.20;0.20;;;;;;;-3.38;54.13;95485.16;5093333;28;20481;-53
2022/01/22 03:12:47;;;;;;;0.20;0.13;;;;;;;-7.85;51.74;94732.44;5091616;28;20443;-53
2022/01/22 03:18:06;;;;;;;0.20;0.13;;;;;;;-5.33;50.82;95205.28;5092680;28;21049;-53
2022/01/22 03:20:58;;;;;;;0.20;0.20;;;;;;;-2.86;51.67;95471.22;5092712;28;21019;-53
2022/01/22 03:29:19;;;;;;;0.20;0.20;;;;;;;-3.36;53.74;95475.41;5049393;28;20472;-53
2022/01/22 03:31:49;;;;;;;0.20;0.20;;;;;;;-3.06;53.78;95472.78;5084298;28;20472;-53
2022/01/22 03:34:18;;;;;;;0.47;0.47;;;;;;;-3.12;53.70;95469.13;5092965;28;20493;-53
2022/01/22 03:36:46;;;;;;;0.20;0.20;;;;;;;-3.29;54.35;95452.19;5092212;28;20486;-53
2022/01/22 03:39:17;;;;;;;0.20;0.20;;;;;;;-2.90;53.44;95475.16;5092451;28;20503;-53
2022/01/22 03:41:47;;;;;;;0.20;0.20;;;;;;;-3.36;52.99;95436.53;5092488;28;20436;-53
2022/01/22 03:44:16;;;;;;;0.20;0.20;;;;;;;-3.64;53.42;95395.94;5092303;28;20432;-53
2022/01/22 03:46:45;;;;;;;0.20;0.20;;;;;;;-2.54;51.60;95477.75;5092720;28;20416;-53
2022/01/22 03:49:15;;;;;;;0.20;0.20;;;;;;;-3.64;51.50;95294.94;5092635;28;20456;-53
2022/01/22 03:51:44;;;;;;;2.10;1.80;;;;;;;-2.34;50.64;95452.78;5091800;28;20481;-53
2022/01/22 03:54:13;;;;;;;0.20;0.20;;;;;;;-2.36;50.35;95457.34;5092381;28;20432;-53
2022/01/22 03:56:46;;;;;;;0.20;0.20;;;;;;;-2.20;50.31;95499.44;5092500;28;20765;-53
2022/01/22 03:59:16;;;;;;;0.20;0.20;;;;;;;-2.81;50.67;95417.81;5090988;28;20991;-53
2022/01/22 04:02:29;;;;;;;0.20;0.17;;;;;;;-2.16;50.50;95486.88;5091414;28;20528;-53
2022/01/22 04:05:01;;;;;;;0.20;0.20;;;;;;;-2.00;51.97;95426.91;5091965;28;20440;-53
2022/01/22 04:10:21;;;;;;;0.20;0.20;;;;;;;-1.77;51.75;95486.41;5092268;28;20436;-53
2022/01/22 04:12:53;;;;;;;0.20;0.20;;;;;;;-1.55;50.86;95486.16;5092317;28;20493;-53
2022/01/22 04:15:25;;;;;;;0.20;0.20;;;;;;;-2.11;50.15;95450.78;5091731;28;20486;-54
2022/01/22 04:26:33;;;;;;;0.30;0.27;;;;;;;-2.98;50.92;95420.81;5092159;28;20471;-53
2022/01/22 04:29:03;;;;;;;0.40;0.40;;;;;;;-2.63;52.50;95493.41;5092322;28;20424;-53
2022/01/22 04:31:32;;;;;;;1.73;1.73;;;;;;;-2.98;53.59;95439.75;5092124;28;20456;-53
2022/01/22 04:34:01;;;;;;;0.20;0.20;;;;;;;-2.51;53.37;95474.78;5091803;28;20481;-53
2022/01/22 04:36:29;;;;;;;0.20;0.20;;;;;;;-3.96;52.59;95384.13;5091629;28;20508;-53
2022/01/22 04:38:58;;;;;;;0.70;0.70;;;;;;;-3.52;53.71;95504.09;5091485;28;20511;-53
2022/01/22 04:41:26;;;;;;;0.20;0.10;;;;;;;-3.66;56.61;95475.56;5092905;28;20432;-53
2022/01/22 04:43:59;;;;;;;0.20;0.13;;;;;;;-3.98;58.61;95417.97;5095896;28;20435;-52
2022/01/22 04:46:49;;;;;;;0.30;0.20;;;;;;;-3.73;57.32;95501.38;5095755;28;20477;-53
2022/01/22 04:55:00;;;;;;;0.20;0.20;;;;;;;-4.37;55.54;95408.78;5095675;28;20435;-53
2022/01/22 04:57:29;;;;;;;0.20;0.20;;;;;;;-3.82;55.76;95499.06;5095509;28;20440;-53
2022/01/22 04:59:58;;;;;;;0.20;0.20;;;;;;;-4.18;55.35;95507.47;5095605;28;20525;-52
2022/01/22 05:02:29;;;;;;;0.30;0.30;;;;;;;-4.00;58.87;95507.94;5095288;28;21124;-53
2022/01/22 05:04:58;;;;;;;0.50;0.47;;;;;;;-3.68;56.29;95503.44;5095924;28;20428;-53
2022/01/22 05:07:27;;;;;;;0.20;0.20;;;;;;;-3.81;54.54;95513.59;5095563;28;20463;-53
2022/01/22 05:09:55;;;;;;;0.77;0.77;;;;;;;-3.83;59.40;95361.03;5095669;28;20424;-54
2022/01/22 05:12:24;;;;;;;0.20;0.20;;;;;;;-2.89;51.88;95506.09;5095378;28;20955;-54
2022/01/22 05:14:53;;;;;;;0.20;0.20;;;;;;;-2.64;54.75;95441.72;5095726;28;20474;-54
2022/01/22 05:17:22;;;;;;;0.20;0.10;;;;;;;-2.51;58.59;95483.38;5095678;28;20873;-55
2022/01/22 05:19:57;;;;;;;0.20;0.20;;;;;;;-2.43;51.40;95506.63;5095529;28;20511;-55
2022/01/22 05:22:44;;;;;;;0.93;0.93;;;;;;;-3.58;51.20;95278.63;5095313;28;20432;-55
2022/01/22 05:25:20;;;;;;;0.20;0.20;;;;;;;-2.51;49.48;95412.50;5094937;28;20475;-55
2022/01/22 05:28:48;;;;;;;0.20;0.20;;;;;;;-2.84;53.40;95523.72;5094794;28;20470;-54
2022/01/22 05:31:23;;;;;;;1.60;1.60;;;;;;;-4.15;58.60;95525.19;5094831;28;20435;-54
2022/01/22 05:36:59;;;;;;;1.30;1.23;;;;;;;-4.78;66.29;95535.03;5094722;28;21013;-53
2022/01/22 05:39:32;;;;;;;0.30;0.20;;;;;;;-5.36;65.38;95385.59;5095066;28;20468;-53
2022/01/22 05:42:07;;;;;;;5.97;1.77;;;;;;;-4.57;64.73;95532.63;5094488;28;20429;-53
2022/01/22 05:44:36;;;;;;;0.20;0.20;;;;;;;-3.52;62.20;95540.38;5094347;28;20424;-53
2022/01/22 05:47:06;;;;;;;0.30;0.20;;;;;;;-2.63;58.42;95531.50;5094895;28;20429;-53
2022/01/22 05:49:39;;;;;;;0.20;0.10;;;;;;;-3.11;56.48;95534.75;5095180;28;20489;-53
2022/01/22 05:52:12;;;;;;;0.20;0.20;;;;;;;-2.95;55.86;95521.56;5094750;28;20432;-53
2022/01/22 05:55:11;;;;;;;0.20;0.20;;;;;;;-3.76;56.65;95449.94;5093745;28;20444;-53
2022/01/22 06:00:36;;;;;;;0.77;0.77;;;;;;;-3.65;60.69;95529.00;5076871;28;20484;-53
2022/01/22 06:03:05;;;;;;;0.20;0.20;;;;;;;-3.14;59.68;95520.34;5091892;28;20475;-53
2022/01/22 06:05:55;;;;;;;0.73;0.73;;;;;;;-4.29;59.10;95381.09;5094686;28;20428;-53
2022/01/22 06:08:30;;;;;;;0.23;0.20;;;;;;;-3.48;59.36;95514.88;5093776;28;20501;-53
2022/01/22 06:11:07;;;;;;;1.80;1.70;;;;;;;-4.03;62.67;95521.25;5094532;28;20478;-53
2022/01/22 06:14:11;;;;;;;1.50;1.40;;;;;;;-4.71;64.70;95461.78;5093729;28;20441;-52
2022/01/22 06:19:25;;;;;;;0.20;0.20;;;;;;;-5.01;68.14;95529.81;5093921;28;20519;-53
2022/01/22 06:22:18;;;;;;;1.07;0.40;;;;;;;-5.62;68.58;95396.25;5093126;28;20894;-54
2022/01/22 06:25:16;;;;;;;0.30;0.20;;;;;;;-4.93;66.04;95436.69;5093697;28;20500;-53
2022/01/22 06:28:01;;;;;;;7.77;0.67;;;;;;;-4.41;65.30;95523.94;5094289;28;20450;-53
2022/01/22 06:30:41;;;;;;;0.93;0.93;;;;;;;-4.48;64.40;95404.88;5093836;28;20440;-53
2022/01/22 06:33:11;;;;;;;0.70;0.70;;;;;;;-3.44;61.76;95518.75;5093712;28;20446;-53
2022/01/22 06:35:39;;;;;;;0.90;0.90;;;;;;;-4.33;62.80;95376.44;5093644;28;20459;-54
2022/01/22 06:38:09;;;;;;;0.20;0.20;;;;;;;-2.43;60.00;95521.38;5093349;28;20505;-54
2022/01/22 06:43:28;;;;;;;0.20;0.20;;;;;;;-2.32;52.56;95378.13;5093641;28;20436;-54
2022/01/22 06:45:57;;;;;;;0.20;0.20;;;;;;;-0.59;50.62;95493.03;5093577;28;20927;-54
2022/01/22 06:51:12;;;;;;;0.30;0.30;;;;;;;0.08;47.67;95416.56;5093326;28;20416;-53
2022/01/22 06:53:40;;;;;;;0.30;0.30;;;;;;;-0.11;46.88;95330.41;5093441;28;20472;-53
2022/01/22 06:56:31;;;;;;;0.67;0.67;;;;;;;0.77;46.98;95458.53;5093402;28;20519;-54
2022/01/22 06:59:02;;;;;;;1.27;1.27;;;;;;;1.10;46.22;95465.28;5093305;28;20479;-56
2022/01/22 07:01:31;;;;;;;0.30;0.30;;;;;;;1.14;46.17;95461.22;5093453;28;20436;-54
2022/01/22 07:04:00;;;;;;;0.93;0.93;;;;;;;1.85;45.48;95450.59;5092723;28;20519;-53
2022/01/22 07:06:28;;;;;;;2.47;2.33;;;;;;;2.11;45.14;95400.72;5092337;28;20920;-54
2022/01/22 07:09:01;;;;;;;0.87;0.80;;;;;;;2.67;44.45;95458.16;5093063;28;20959;-54
2022/01/22 07:11:31;;;;;;;1.00;0.90;;;;;;;3.10;43.71;95434.53;5093446;28;20489;-54
2022/01/22 07:14:01;;;;;;;0.67;0.67;;;;;;;3.33;43.41;95441.69;5092784;28;20421;-53
2022/01/22 07:16:29;;;;;;;3.67;3.57;;;;;;;3.28;42.08;95455.47;5093079;28;20433;-53
2022/01/22 07:21:47;;;;;;;1.93;1.93;;;;;;;3.23;39.97;95405.56;5092875;28;20493;-52
2022/01/22 07:24:30;;;;;;;1.00;1.00;;;;;;;4.17;39.93;95389.06;5093203;28;20499;-51
2022/01/22 07:27:03;;;;;;;0.50;0.50;;;;;;;3.54;38.20;95425.50;5091809;28;20432;-51
2022/01/22 07:29:32;;;;;;;0.50;0.50;;;;;;;3.54;36.78;95423.66;5092662;28;20432;-51
2022/01/22 07:32:02;;;;;;;0.70;0.70;;;;;;;3.54;36.41;95366.03;5092926;28;20481;-51
2022/01/22 07:34:31;;;;;;;0.30;0.20;;;;;;;4.48;35.60;95421.00;5092777;28;20901;-51
2022/01/22 07:37:02;;;;;;;0.30;0.20;;;;;;;4.66;35.47;95393.81;5092870;28;20859;-51
2022/01/22 07:39:30;;;;;;;0.37;0.33;;;;;;;5.02;35.00;95380.41;5092546;28;20413;-51
2022/01/22 07:42:02;;;;;;;0.37;0.37;;;;;;;4.21;37.84;95387.56;5092574;28;20424;-52
2022/01/22 07:44:30;;;;;;;1.20;0.67;;;;;;;4.22;37.65;95329.66;5092566;28;20413;-52
2022/01/22 07:46:59;;;;;;;0.73;0.73;;;;;;;5.18;37.01;95402.50;5092492;28;20416;-52
2022/01/22 07:49:27;;;;;;;1.50;1.50;;;;;;;5.83;37.07;95397.66;5092674;28;20505;-52
2022/01/22 07:51:56;;;;;;;3.47;2.13;;;;;;;6.98;34.99;95392.56;5092378;28;20460;-52
2022/01/22 07:54:24;;;;;;;0.83;0.83;;;;;;;5.76;34.25;95215.56;5092505;28;20462;-52
2022/01/22 07:56:53;;;;;;;0.47;0.47;;;;;;;7.25;33.29;95351.25;5092520;28;20494;-53
2022/01/22 07:59:23;;;;;;;1.77;1.67;;;;;;;6.54;34.90;95394.34;5092206;28;20932;-52
2022/01/22 08:01:53;;;;;;;2.77;1.87;;;;;;;5.96;34.50;95380.81;5091805;28;20556;-53
2022/01/22 08:04:24;;;;;;;1.03;1.00;;;;;;;3.60;36.84;95273.41;5092060;28;20476;-53
2022/01/22 08:06:58;;;;;;;1.80;1.13;;;;;;;5.02;36.87;95395.34;5092235;28;20420;-53
2022/01/22 08:09:27;;;;;;;1.03;1.03;;;;;;;5.83;35.12;95392.41;5092086;28;20489;-54
2022/01/22 08:11:57;;;;;;;0.30;0.30;;;;;;;6.14;33.85;95388.47;5092127;28;20464;-54
2022/01/22 08:14:30;;;;;;;4.20;4.00;;;;;;;7.06;33.71;95386.84;5091833;28;20429;-54
2022/01/22 08:16:59;;;;;;;1.47;1.47;;;;;;;8.00;30.71;95368.81;5091469;28;20474;-55
2022/01/22 08:19:28;;;;;;;2.27;1.03;;;;;;;7.87;30.24;95377.19;5091774;28;20464;-56
2022/01/22 08:21:56;;;;;;;0.30;0.20;;;;;;;6.45;29.63;95287.06;5091876;28;20464;-57
2022/01/22 08:24:26;;;;;;;0.70;0.40;;;;;;;7.01;28.83;95303.25;5092203;28;20504;-58
2022/01/22 08:27:09;;;;;;;0.73;0.73;;;;;;;7.75;29.39;95382.59;5092251;28;20481;-59
2022/01/22 08:29:39;;;;;;;0.37;0.27;;;;;;;9.22;27.71;95377.28;5092125;28;20510;-60
2022/01/22 08:32:27;;;;;;;0.37;0.30;;;;;;;8.03;28.33;95370.97;5091361;28;20420;-59
2022/01/22 08:37:41;;;;;;;0.40;0.30;;;;;;;8.30;27.91;95223.88;5091429;28;20561;-59
2022/01/22 08:40:12;;;;;;;37.57;1.77;;;;;;;9.43;29.80;95372.88;5091297;28;20525;-58
2022/01/22 08:42:41;;;;;;;1.30;1.27;;;;;;;8.79;29.74;95316.81;5091580;28;20474;-57
2022/01/22 08:45:11;;;;;;;0.67;0.63;;;;;;;8.51;30.96;95357.63;5091010;28;20541;-56
2022/01/22 08:47:41;;;;;;;21.13;2.40;;;;;;;7.81;30.46;95304.28;5091522;28;20433;-57
2022/01/22 08:50:10;;;;;;;4.77;1.63;;;;;;;8.55;30.88;95350.78;5091179;28;20952;-57
2022/01/22 08:52:40;;;;;;;2.83;1.13;;;;;;;9.76;29.81;95337.22;5092234;28;20984;-57
2022/01/22 08:55:09;;;;;;;0.63;0.63;;;;;;;9.96;28.42;95335.38;5091714;28;20437;-57
2022/01/22 08:57:38;;;;;;;1.10;1.10;;;;;;;10.18;27.03;95330.63;5092138;28;20508;-56
2022/01/22 09:00:08;;;;;;;0.50;0.50;;;;;;;10.31;26.44;95328.50;5091791;28;20501;-56
2022/01/22 09:02:38;;;;;;;0.70;0.70;;;;;;;11.15;26.38;95326.69;5091245;28;20476;-56
2022/01/22 09:05:08;;;;;;;1.00;0.90;;;;;;;11.07;25.08;95326.44;5091687;28;20443;-56
2022/01/22 09:07:36;;;;;;;0.40;0.30;;;;;;;11.06;24.61;95320.34;5091850;28;20582;-56
2022/01/22 09:10:06;;;;;;;0.83;0.83;;;;;;;10.88;23.96;95322.81;5090391;28;20428;-56
2022/01/22 09:12:34;;;;;;;1.40;1.30;;;;;;;11.84;25.83;95315.19;5091491;28;20416;-56
2022/01/22 09:15:04;;;;;;;0.50;0.50;;;;;;;12.52;24.64;95290.13;5091582;28;20424;-55
2022/01/22 09:17:32;;;;;;;0.63;0.63;;;;;;;12.27;23.73;95293.03;5091520;28;20424;-55
2022/01/22 09:20:05;;;;;;;0.50;0.40;;;;;;;12.70;22.48;95285.94;5091364;28;20948;-55
2022/01/22 09:22:34;;;;;;;0.30;0.27;;;;;;;13.01;22.44;95289.03;5091288;28;20886;-55
2022/01/22 09:25:02;;;;;;;0.60;0.60;;;;;;;12.04;24.22;95275.19;5091314;28;20472;-54
2022/01/22 09:27:31;;;;;;;0.40;0.40;;;;;;;11.78;23.73;95284.41;5092519;28;20490;-54
2022/01/22 09:29:59;;;;;;;0.43;0.30;;;;;;;13.19;21.37;95275.00;5094803;28;20793;-54
2022/01/22 09:32:28;;;;;;;0.60;0.60;;;;;;;12.68;22.25;95275.59;5095289;28;20424;-54
2022/01/22 09:34:56;;;;;;;1.33;0.90;;;;;;;13.04;22.62;95272.50;5094863;28;20933;-54
2022/01/22 09:37:26;;;;;;;0.57;0.40;;;;;;;13.25;21.76;95264.03;5094999;28;20455;-54
2022/01/22 09:39:54;;;;;;;0.80;0.80;;;;;;;13.10;21.71;95258.13;5095188;28;20432;-54
2022/01/22 09:42:23;;;;;;;1.17;1.17;;;;;;;13.08;22.10;95253.06;5094635;28;21000;-53
2022/01/22 09:44:51;;;;;;;2.20;1.07;;;;;;;11.35;23.80;95223.09;5093615;28;20565;-52
2022/01/22 09:47:21;;;;;;;0.40;0.30;;;;;;;12.43;22.50;95243.97;5094880;28;20849;-52
2022/01/22 09:49:50;;;;;;;1.43;0.43;;;;;;;13.63;21.59;95227.53;5094868;28;20478;-52
2022/01/22 09:52:20;;;;;;;2.00;0.70;;;;;;;14.54;21.61;95236.66;5094704;28;20545;-52
2022/01/22 09:54:49;;;;;;;0.60;0.50;;;;;;;12.45;21.46;95239.16;5094870;28;20436;-53
2022/01/22 09:57:20;;;;;;;0.93;0.90;;;;;;;11.87;22.23;95229.63;5094550;28;20483;-53
2022/01/22 09:59:48;;;;;;;0.33;0.30;;;;;;;13.01;21.03;95219.88;5094303;28;20485;-54
2022/01/22 10:02:19;;;;;;;0.30;0.20;;;;;;;13.95;19.37;95206.22;5093843;28;20488;-54
2022/01/22 10:04:49;;;;;;;0.30;0.20;;;;;;;12.84;20.32;95198.28;5094480;28;20511;-54
2022/01/22 10:07:20;;;;;;;0.40;0.30;;;;;;;13.15;21.20;95191.53;5094215;28;20968;-54
2022/01/22 10:09:59;;;;;;;0.40;0.40;;;;;;;13.92;19.94;95179.38;5094199;28;20795;-54
2022/01/22 10:12:29;;;;;;;0.53;0.50;;;;;;;13.55;20.27;95174.13;5094103;28;20649;-54
2022/01/22 10:15:08;;;;;;;0.30;0.20;;;;;;;12.61;20.39;95125.47;5093959;28;20929;-54
2022/01/22 10:17:44;;;;;;;0.40;0.40;;;;;;;10.08;22.80;95192.09;5093778;28;20432;-54
2022/01/22 10:20:31;;;;;;;0.50;0.30;;;;;;;11.26;23.27;95174.34;5094016;28;20447;-54
2022/01/22 10:23:02;;;;;;;3.43;1.70;;;;;;;10.83;23.92;95167.97;5094312;28;20826;-54
2022/01/22 10:25:36;;;;;;;1.87;1.77;;;;;;;9.87;24.42;95178.13;5093940;28;20436;-54
2022/01/22 10:28:06;;;;;;;0.30;0.23;;;;;;;9.20;22.11;95170.50;5093944;28;20869;-54
2022/01/22 10:30:38;;;;;;;0.40;0.30;;;;;;;8.92;23.87;95110.19;5093762;28;20421;-55
2022/01/22 10:33:24;;;;;;;0.37;0.20;;;;;;;8.66;22.08;95158.78;5093701;28;20944;-55
2022/01/22 10:35:52;;;;;;;0.30;0.20;;;;;;;10.42;24.71;95120.78;5093584;28;20486;-55
2022/01/22 10:38:21;;;;;;;0.57;0.40;;;;;;;9.28;21.77;95166.53;5093901;28;20495;-55
2022/01/22 10:40:58;;;;;;;0.40;0.20;;;;;;;9.71;22.48;95170.47;5093153;28;20424;-55
2022/01/22 10:43:31;;;;;;;0.37;0.27;;;;;;;10.25;22.03;95178.56;5093949;28;20432;-55
2022/01/22 10:46:11;;;;;;;0.30;0.20;;;;;;;12.63;21.02;95155.19;5093639;28;20416;-54
2022/01/22 10:48:44;;;;;;;0.43;0.43;;;;;;;10.11;22.35;95162.44;5093447;28;20952;-53
2022/01/22 10:51:14;;;;;;;0.50;0.47;;;;;;;11.72;20.49;95148.25;5093550;28;20420;-54
2022/01/22 10:53:47;;;;;;;0.30;0.20;;;;;;;12.07;21.10;95141.78;5093684;28;20494;-54
2022/01/22 10:56:19;;;;;;;0.30;0.20;;;;;;;8.94;22.65;95143.25;5093404;28;20452;-56
2022/01/22 10:59:02;;;;;;;0.40;0.30;;;;;;;10.73;24.82;95146.03;5093235;28;20437;-54
2022/01/22 11:01:44;;;;;;;0.47;0.47;;;;;;;10.90;22.87;95151.00;5093192;28;20472;-54
2022/01/22 11:04:15;;;;;;;1.50;0.63;;;;;;;11.17;22.21;95138.06;5093383;28;20432;-55
2022/01/22 11:06:51;;;;;;;0.40;0.30;;;;;;;10.24;22.87;95129.34;5093193;28;20478;-54
2022/01/22 11:09:40;;;;;;;0.30;0.20;;;;;;;9.57;22.25;95139.28;5093040;28;20440;-54
2022/01/22 11:12:11;;;;;;;0.30;0.20;;;;;;;9.75;22.72;95135.28;5093384;28;20425;-54
2022/01/22 11:14:40;;;;;;;0.30;0.20;;;;;;;10.33;22.92;95128.50;5093077;28;20429;-54
2022/01/22 11:17:09;;;;;;;1.53;0.80;;;;;;;11.73;21.88;95125.16;5093037;28;20464;-54
2022/01/22 11:19:39;;;;;;;0.40;0.40;;;;;;;11.07;21.71;95124.88;5093206;28;20481;-54
2022/01/22 11:22:10;;;;;;;0.40;0.37;;;;;;;10.33;21.62;95119.75;5093147;28;20537;-54
2022/01/22 11:24:40;;;;;;;0.47;0.43;;;;;;;11.72;21.71;95112.94;5092985;28;20489;-54
2022/01/22 11:27:12;;;;;;;0.63;0.63;;;;;;;11.48;20.68;95062.47;5092531;28;20485;-54
2022/01/22 11:29:47;;;;;;;4.67;1.07;;;;;;;9.71;22.16;95117.56;5092658;28;20474;-54
2022/01/22 11:32:17;;;;;;;0.60;0.50;;;;;;;9.58;21.97;95113.59;5093088;28;20471;-54
2022/01/22 11:34:49;;;;;;;0.93;0.93;;;;;;;10.46;23.96;95101.41;5092970;28;20798;-54
2022/01/22 11:37:22;;;;;;;0.60;0.60;;;;;;;10.29;22.49;95098.31;5092990;28;20450;-54
2022/01/22 11:40:10;;;;;;;0.60;0.60;;;;;;;12.41;19.99;95097.28;5092878;28;20511;-54
2022/01/22 11:42:57;;;;;;;0.40;0.30;;;;;;;11.30;20.27;95077.22;5092800;28;20467;-54
2022/01/22 11:45:29;;;;;;;0.60;0.60;;;;;;;10.80;21.22;95082.94;5092474;28;20995;-54
2022/01/22 11:48:21;;;;;;;0.40;0.30;;;;;;;9.67;21.07;95029.97;5092483;28;20975;-54
2022/01/22 11:50:51;;;;;;;0.40;0.30;;;;;;;12.01;19.88;95057.94;5091701;28;20435;-54
2022/01/22 11:53:25;;;;;;;0.60;0.60;;;;;;;12.93;18.71;95069.69;5092337;28;20441;-54
2022/01/22 11:56:24;;;;;;;0.90;0.90;;;;;;;12.93;19.47;95060.94;5092698;28;20865;-53
2022/01/22 11:59:26;;;;;;;0.30;0.30;;;;;;;11.06;19.23;95070.25;5092557;28;20513;-54
2022/01/22 12:02:02;;;;;;;0.50;0.30;;;;;;;12.44;19.03;95067.47;5091948;28;20540;-53
2022/01/22 12:05:05;;;;;;;0.40;0.40;;;;;;;11.92;19.61;95071.03;5092241;28;20434;-53
2022/01/22 12:07:36;;;;;;;0.30;0.20;;;;;;;9.92;21.65;95089.94;5049418;28;21024;-53
2022/01/22 12:10:33;;;;;;;0.40;0.40;;;;;;;10.47;21.13;95088.97;5084419;28;20436;-53
2022/01/22 12:16:38;;;;;;;0.70;0.70;;;;;;;10.09;21.40;95077.19;5092118;28;21010;-53
2022/01/22 12:19:26;;;;;;;0.40;0.37;;;;;;;11.06;20.35;95073.69;5091768;28;20474;-53
2022/01/22 12:21:55;;;;;;;0.40;0.40;;;;;;;11.94;20.70;95071.53;5091470;28;21026;-53
2022/01/22 12:24:32;;;;;;;0.50;0.50;;;;;;;11.17;20.53;95077.88;5091960;28;20417;-53
2022/01/22 12:27:04;;;;;;;0.30;0.20;;;;;;;11.25;20.61;95060.56;5091901;28;20522;-53
2022/01/22 12:29:45;;;;;;;3.53;0.57;;;;;;;11.23;20.78;95066.13;5092243;28;20423;-53
2022/01/22 12:32:33;;;;;;;0.30;0.20;;;;;;;11.19;19.90;95059.00;5091700;28;20420;-53
2022/01/22 12:35:09;;;;;;;0.40;0.37;;;;;;;10.72;19.87;95051.69;5091942;28;20840;-53
2022/01/22 12:37:47;;;;;;;0.30;0.20;;;;;;;10.84;19.90;95022.97;5092058;28;20424;-53
2022/01/22 12:40:28;;;;;;;0.37;0.30;;;;;;;10.06;20.45;95052.06;5091579;28;20476;-52
2022/01/22 12:43:06;;;;;;;0.30;0.20;;;;;;;9.48;21.43;95055.44;5091665;28;20518;-54
2022/01/22 12:45:36;;;;;;;0.60;0.30;;;;;;;7.84;22.60;95053.94;5091850;28;20424;-53
2022/01/22 12:48:06;;;;;;;0.40;0.30;;;;;;;6.95;25.52;95061.09;5091657;28;20439;-53
2022/01/22 12:50:37;;;;;;;0.30;0.20;;;;;;;8.37;23.10;95055.44;5091995;28;20420;-53
2022/01/22 12:53:12;;;;;;;0.30;0.20;;;;;;;8.98;22.37;95044.94;5091614;28;20432;-53
2022/01/22 12:58:40;;;;;;;0.40;0.30;;;;;;;10.60;20.75;95044.06;5091758;28;20428;-54
2022/01/22 13:01:24;;;;;;;0.30;0.30;;;;;;;10.22;20.79;95057.31;5091816;28;20769;-54
2022/01/22 13:03:55;;;;;;;0.40;0.30;;;;;;;11.18;20.98;95036.97;5094445;28;20480;-54
2022/01/22 13:06:26;;;;;;;1.03;1.03;;;;;;;10.23;20.92;95045.63;5095874;28;20419;-54
2022/01/22 13:08:59;;;;;;;0.30;0.20;;;;;;;11.32;20.08;95035.28;5095384;28;20515;-55
2022/01/22 13:11:29;;;;;;;0.30;0.20;;;;;;;9.26;21.50;95031.91;5095387;28;20913;-55
2022/01/22 13:13:58;;;;;;;0.30;0.20;;;;;;;9.03;21.82;95048.38;5095431;28;20872;-54
2022/01/22 13:16:27;;;;;;;0.30;0.20;;;;;;;10.01;23.29;95044.13;5095483;28;20429;-54
2022/01/22 13:18:59;;;;;;;0.30;0.20;;;;;;;9.07;21.48;95067.13;5095255;28;20503;-53
2022/01/22 13:21:31;;;;;;;0.40;0.40;;;;;;;10.73;20.58;95051.41;5095250;28;20460;-53
2022/01/22 13:24:03;;;;;;;0.60;0.60;;;;;;;10.95;19.78;95055.50;5095235;28;20463;-54
2022/01/22 13:26:46;;;;;;;0.90;0.83;;;;;;;9.38;21.47;95058.91;5095432;28;20428;-54
2022/01/22 13:29:24;;;;;;;0.57;0.57;;;;;;;8.87;22.28;95066.06;5095097;28;20493;-54